Time;durP1;ratioP1;P1;durP2;ratioP2;P2;SDS_P1;SDS_P2;PMS_P1;PMS_P2;Temp;Humidity;BMP_temperature;BMP_pressure;BME280_temperature;BME280_humidity;BME280_pressure;Samples;Min_cycle;Max_cycle;Signal;HPM_P1;HPM_P2
2023/02/21 02:14:59;;;;;;;;;;;;;;;4.90;100.00;96032.03;10527581;28;3357;-71
2023/02/21 02:20:02;;;;;;;;;;;;;;;4.71;100.00;96028.66;10510873;28;2530;-68
2023/02/21 02:25:04;;;;;;;;;;;;;;;4.66;100.00;96033.84;10519898;28;2612;-69
2023/02/21 02:30:07;;;;;;;;;;;;;;;4.54;100.00;96028.50;10524068;28;2637;-69
2023/02/21 02:35:09;;;;;;;;;;;;;;;4.44;100.00;96027.44;10519644;28;3026;-69
2023/02/21 02:40:12;;;;;;;;;;;;;;;4.37;100.00;96018.75;10526281;28;2565;-69
2023/02/21 02:45:14;;;;;;;;;;;;;;;4.45;100.00;96018.41;10523726;28;3011;-70
2023/02/21 02:50:17;;;;;;;;;;;;;;;4.49;100.00;96017.72;10524379;28;3422;-69
2023/02/21 02:55:19;;;;;;;;;;;;;;;4.53;100.00;96005.59;10538698;28;3271;-70
2023/02/21 03:00:21;;;;;;;;;;;;;;;4.48;100.00;96017.97;10523011;28;3010;-68
2023/02/21 03:05:24;;;;;;;;;;;;;;;4.49;100.00;96014.25;10526348;28;3029;-69
2023/02/21 03:10:26;;;;;;;;;;;;;;;4.31;100.00;96015.94;10535248;28;3164;-70
2023/02/21 03:15:29;;;;;;;;;;;;;;;4.24;100.00;96012.59;10531255;28;2604;-69
2023/02/21 03:20:31;;;;;;;;;;;;;;;4.17;100.00;96016.38;10539927;28;2600;-70
2023/02/21 03:25:34;;;;;;;;;;;;;;;4.13;100.00;96017.88;10538986;28;3152;-68
2023/02/21 03:30:36;;;;;;;;;;;;;;;4.10;100.00;96024.47;10540406;28;3057;-68
2023/02/21 03:35:38;;;;;;;;;;;;;;;4.12;100.00;96022.38;10540280;28;3389;-69
2023/02/21 03:40:43;;;;;;;;;;;;;;;4.10;100.00;96019.16;10537122;28;3355;-68
2023/02/21 03:45:45;;;;;;;;;;;;;;;4.17;100.00;96016.38;10531979;28;3069;-69
2023/02/21 03:50:48;;;;;;;;;;;;;;;4.18;100.00;96023.31;10527850;28;2621;-70
2023/02/21 03:55:50;;;;;;;;;;;;;;;4.10;100.00;96016.47;10524577;28;2596;-70
2023/02/21 04:00:53;;;;;;;;;;;;;;;4.07;100.00;96014.25;10531333;28;3286;-71
2023/02/21 04:05:56;;;;;;;;;;;;;;;4.07;100.00;96014.25;10530898;28;3427;-74
2023/02/21 04:10:58;;;;;;;;;;;;;;;4.00;100.00;96017.00;10528865;28;3291;-71
2023/02/21 04:16:00;;;;;;;;;;;;;;;4.04;100.00;96020.03;10529935;28;3129;-69
2023/02/21 04:21:03;;;;;;;;;;;;;;;4.03;100.00;96021.09;10533492;28;3283;-73
2023/02/21 04:26:05;;;;;;;;;;;;;;;4.05;100.00;96011.03;10532155;28;2750;-70
2023/02/21 04:31:07;;;;;;;;;;;;;;;4.12;100.00;96011.75;10533364;28;3046;-70
2023/02/21 04:36:10;;;;;;;;;;;;;;;4.12;100.00;95997.63;10516677;28;3330;-69
2023/02/21 04:41:12;;;;;;;;;;;;;;;4.09;100.00;96001.56;10538830;28;3263;-71
2023/02/21 04:46:15;;;;;;;;;;;;;;;4.07;100.00;96001.81;10533780;28;3267;-69
2023/02/21 04:51:18;;;;;;;;;;;;;;;4.06;100.00;95999.34;10538482;28;3106;-72
2023/02/21 04:56:21;;;;;;;;;;;;;;;4.09;100.00;95995.44;10535196;28;3057;-70
2023/02/21 05:01:23;;;;;;;;;;;;;;;4.13;100.00;95994.72;10509795;28;3376;-69
2023/02/21 05:06:26;;;;;;;;;;;;;;;4.11;100.00;95986.19;10527138;28;2661;-70
2023/02/21 05:11:28;;;;;;;;;;;;;;;4.20;100.00;95982.16;10529096;28;2669;-71
2023/02/21 05:16:31;;;;;;;;;;;;;;;4.17;100.00;95982.59;10527334;28;2612;-69
2023/02/21 05:21:33;;;;;;;;;;;;;;;4.14;100.00;95974.28;10520828;28;3108;-70
2023/02/21 05:26:35;;;;;;;;;;;;;;;4.21;100.00;95970.47;10530793;28;2648;-77
2023/02/21 05:31:38;;;;;;;;;;;;;;;4.15;100.00;95975.91;10528722;28;3014;-72
2023/02/21 05:36:40;;;;;;;;;;;;;;;4.36;100.00;95974.53;10521537;28;3382;-69
2023/02/21 05:41:42;;;;;;;;;;;;;;;4.57;100.00;95973.97;10527175;28;3045;-70
2023/02/21 05:46:45;;;;;;;;;;;;;;;4.42;100.00;95965.66;10522447;28;2553;-69
2023/02/21 05:51:47;;;;;;;;;;;;;;;4.40;100.00;95962.41;10521498;28;2530;-71
2023/02/21 05:56:50;;;;;;;;;;;;;;;4.40;100.00;95968.53;10522340;28;3029;-70
2023/02/21 06:01:52;;;;;;;;;;;;;;;4.26;100.00;95975.94;10504209;28;2545;-70
2023/02/21 06:06:54;;;;;;;;;;;;;;;4.39;100.00;95964.28;10515830;28;3079;-71
2023/02/21 06:11:57;;;;;;;;;;;;;;;4.25;100.00;95970.81;10529037;28;3254;-69
2023/02/21 06:16:59;;;;;;;;;;;;;;;4.36;100.00;95967.38;10519260;28;3360;-70
2023/02/21 06:22:01;;;;;;;;;;;;;;;4.36;100.00;95977.22;10522785;28;2573;-69
2023/02/21 06:27:04;;;;;;;;;;;;;;;4.28;100.00;95979.16;10520746;28;3372;-69
2023/02/21 06:32:06;;;;;;;;;;;;;;;4.29;100.00;95978.13;10518398;28;3116;-68
2023/02/21 06:37:08;;;;;;;;;;;;;;;4.38;100.00;95980.44;10519886;28;3096;-70
2023/02/21 06:42:11;;;;;;;;;;;;;;;4.55;100.00;95990.19;10525681;28;2585;-71
2023/02/21 06:47:13;;;;;;;;;;;;;;;4.65;100.00;95997.63;10529547;28;3299;-69
2023/02/21 06:52:16;;;;;;;;;;;;;;;4.82;100.00;95998.53;10528064;28;2980;-72
2023/02/21 06:57:18;;;;;;;;;;;;;;;4.72;100.00;96008.97;10528041;28;3006;-77
2023/02/21 07:02:21;;;;;;;;;;;;;;;4.87;100.00;96016.50;10523748;28;3330;-70
2023/02/21 07:07:23;;;;;;;;;;;;;;;5.02;100.00;96018.69;10527609;28;3006;-69
2023/02/21 07:12:26;;;;;;;;;;;;;;;5.11;100.00;96022.63;10525889;28;2529;-69
2023/02/21 07:17:28;;;;;;;;;;;;;;;5.28;100.00;96022.72;10530086;28;2550;-69
2023/02/21 07:22:31;;;;;;;;;;;;;;;5.47;100.00;96015.38;10528206;28;3378;-69
2023/02/21 07:27:33;;;;;;;;;;;;;;;5.55;100.00;96017.72;10533189;28;3023;-71
2023/02/21 07:32:35;;;;;;;;;;;;;;;5.70;100.00;96021.47;10534215;28;2257;-71
2023/02/21 07:37:38;;;;;;;;;;;;;;;5.83;100.00;96017.72;10528294;28;3030;-71
2023/02/21 07:42:42;;;;;;;;;;;;;;;6.02;100.00;96007.69;10521481;28;2935;-75
2023/02/21 07:47:44;;;;;;;;;;;;;;;6.14;100.00;96018.34;10535134;28;3100;-75
2023/02/21 07:52:49;;;;;;;;;;;;;;;6.28;100.00;96026.84;10542091;28;3102;-72
2023/02/21 07:57:51;;;;;;;;;;;;;;;6.42;100.00;96033.50;10538981;28;2230;-72
2023/02/21 08:02:54;;;;;;;;;;;;;;;6.62;100.00;96030.38;10534217;28;3034;-72
2023/02/21 08:07:56;;;;;;;;;;;;;;;6.81;100.00;96029.09;10537862;28;3046;-74
2023/02/21 08:12:59;;;;;;;;;;;;;;;7.02;100.00;96022.19;10541003;28;2265;-71
2023/02/21 08:18:01;;;;;;;;;;;;;;;7.46;100.00;96036.44;10529821;28;3050;-73
2023/02/21 08:23:03;;;;;;;;;;;;;;;7.62;100.00;96037.44;10533016;28;2931;-72
2023/02/21 08:28:06;;;;;;;;;;;;;;;7.84;100.00;96030.25;10532717;28;2963;-73
2023/02/21 08:33:09;;;;;;;;;;;;;;;7.95;100.00;96028.50;10516740;28;2274;-72
2023/02/21 08:38:13;;;;;;;;;;;;;;;8.17;100.00;96039.19;10528412;28;3089;-72
2023/02/21 08:43:36;;;;;;;;;;;;;;;8.36;100.00;96026.28;10524906;28;2312;-72
2023/02/21 08:48:59;;;;;;;;;;;;;;;8.52;100.00;96036.06;10517483;28;3068;-71
2023/02/21 08:54:22;;;;;;;;;;;;;;;8.81;100.00;96030.44;10522358;28;3031;-73
2023/02/21 08:59:44;;;;;;;;;;;;;;;9.01;100.00;96033.25;10519371;28;2288;-71
2023/02/21 09:05:07;;;;;;;;;;;;;;;9.23;98.44;96022.44;10516991;28;3058;-71
2023/02/21 09:10:30;;;;;;;;;;;;;;;9.42;96.41;96039.72;10525670;28;3062;-73
2023/02/21 09:15:53;;;;;;;;;;;;;;;9.51;94.81;96029.28;10519396;28;3093;-73
2023/02/21 09:21:15;;;;;;;;;;;;;;;9.73;93.11;96024.59;10519974;28;2462;-73
2023/02/21 09:26:38;;;;;;;;;;;;;;;9.96;86.53;96034.06;10519880;28;3006;-74
2023/02/21 09:32:01;;;;;;;;;;;;;;;10.05;86.26;96031.66;10522088;28;3077;-73
2023/02/21 09:37:24;;;;;;;;;;;;;;;10.23;82.48;96027.72;10531025;28;2293;-73
2023/02/21 09:42:46;;;;;;;;;;;;;;;10.32;81.26;96031.53;10527258;28;2336;-72
2023/02/21 09:48:09;;;;;;;;;;;;;;;10.42;81.26;96022.66;10518170;28;3098;-73
2023/02/21 09:53:32;;;;;;;;;;;;;;;10.62;80.77;96009.25;10517457;28;2959;-72
2023/02/21 09:58:55;;;;;;;;;;;;;;;10.72;79.55;96014.63;10517380;28;2332;-73
2023/02/21 10:04:17;;;;;;;;;;;;;;;10.86;79.04;96003.34;10519915;28;2986;-71
2023/02/21 10:09:40;;;;;;;;;;;;;;;10.98;79.48;96006.56;10521783;28;2975;-73
2023/02/21 10:15:03;;;;;;;;;;;;;;;11.16;76.17;96006.00;10513976;28;2393;-71
2023/02/21 10:20:26;;;;;;;;;;;;;;;11.26;74.18;96006.00;10517487;28;3142;-74
2023/02/21 10:25:48;;;;;;;;;;;;;;;11.26;75.14;96007.88;10521734;28;2298;-74
2023/02/21 10:31:11;;;;;;;;;;;;;;;11.45;74.02;96017.00;10520010;28;3034;-73
2023/02/21 10:36:35;;;;;;;;;;;;;;;11.52;71.59;96022.09;10516328;28;2908;-71
2023/02/21 10:41:58;;;;;;;;;;;;;;;11.45;72.21;96013.47;10481794;28;2990;-72
2023/02/21 10:47:21;;;;;;;;;;;;;;;11.63;71.22;96018.28;10479073;28;2430;-77
2023/02/21 10:52:44;;;;;;;;;;;;;;;11.84;68.37;96008.31;10484286;28;2328;-73
2023/02/21 10:58:07;;;;;;;;;;;;;;;11.93;66.30;96005.81;10478573;28;2959;-74
2023/02/21 11:03:30;;;;;;;;;;;;;;;12.07;66.56;95996.06;10483594;28;3273;-74
2023/02/21 11:08:53;;;;;;;;;;;;;;;12.01;68.45;95991.78;10467919;28;3185;-73
2023/02/21 11:14:15;;;;;;;;;;;;;;;12.11;66.87;95994.44;10476096;28;2994;-73
2023/02/21 11:19:38;;;;;;;;;;;;;;;12.10;69.91;95980.16;10476056;28;2981;-73
2023/02/21 11:25:01;;;;;;;;;;;;;;;12.08;69.15;95968.03;10476991;28;2338;-72
2023/02/21 11:30:24;;;;;;;;;;;;;;;12.14;69.33;95953.44;10483258;28;2970;-74
2023/02/21 11:35:47;;;;;;;;;;;;;;;12.20;68.91;95956.91;10479407;28;2286;-75
2023/02/21 11:41:09;;;;;;;;;;;;;;;12.17;67.80;95942.13;10525821;28;2969;-74
2023/02/21 11:46:32;;;;;;;;;;;;;;;12.22;68.14;95939.41;10529017;28;3000;-73
2023/02/21 11:51:55;;;;;;;;;;;;;;;12.40;67.28;95924.41;10527311;28;3082;-73
2023/02/21 11:57:18;;;;;;;;;;;;;;;12.57;67.97;95921.34;10522463;28;3069;-74
2023/02/21 12:02:41;;;;;;;;;;;;;;;12.42;66.98;95914.19;10515209;28;2225;-71
2023/02/21 12:08:03;;;;;;;;;;;;;;;12.56;66.53;95911.63;10524272;28;3226;-74
2023/02/21 12:13:26;;;;;;;;;;;;;;;12.75;63.25;95895.56;10521954;28;3017;-78
2023/02/21 12:18:49;;;;;;;;;;;;;;;12.71;62.98;95889.91;10522932;28;3098;-74
2023/02/21 12:24:12;;;;;;;;;;;;;;;12.86;62.66;95889.78;10521251;28;2927;-74
2023/02/21 12:29:14;;;;;;;;;;;;;;;12.96;62.95;95878.88;10525117;28;7971;-73
2023/02/21 12:34:35;;;;;;;;;;;;;;;13.09;62.39;95876.59;10523858;28;3000;-75
2023/02/21 12:39:58;;;;;;;;;;;;;;;13.01;61.69;95867.22;10519632;28;3070;-74
2023/02/21 12:45:22;;;;;;;;;;;;;;;13.12;61.86;95857.94;10528590;28;2766;-75
2023/02/21 12:50:45;;;;;;;;;;;;;;;13.16;62.80;95855.47;10527049;28;2315;-74
2023/02/21 12:56:08;;;;;;;;;;;;;;;13.17;63.18;95847.09;10526630;28;3053;-74
2023/02/21 13:01:31;;;;;;;;;;;;;;;13.11;64.14;95836.66;10531138;28;3046;-75
2023/02/21 13:06:56;;;;;;;;;;;;;;;13.09;63.38;95831.50;10506343;28;3049;-75
2023/02/21 13:12:19;;;;;;;;;;;;;;;13.17;64.65;95820.09;10522741;28;2360;-76
2023/02/21 13:17:41;;;;;;;;;;;;;;;13.23;64.05;95818.16;10522171;28;2266;-73
2023/02/21 13:28:43;;;;;;;;;;;;;;;13.33;64.85;95801.84;10521018;28;2250;-75
2023/02/21 13:34:04;;;;;;;;;;;;;;;13.29;64.34;95787.31;10528135;28;2285;-74
2023/02/21 13:39:06;;;;;;;;;;;;;;;13.23;66.20;95774.97;10524561;28;3034;-75
2023/02/21 13:44:29;;;;;;;;;;;;;;;13.37;66.79;95773.19;10520607;28;3073;-76
2023/02/21 13:49:31;;;;;;;;;;;;;;;13.28;67.26;95772.19;10524380;28;2348;-76
2023/02/21 13:54:33;;;;;;;;;;;;;;;13.27;67.88;95765.19;10528212;28;3046;-74
2023/02/21 13:59:36;;;;;;;;;;;;;;;13.42;66.83;95759.63;10526361;28;3127;-75
2023/02/21 14:04:59;;;;;;;;;;;;;;;13.53;65.95;95741.34;10523873;28;3065;-75
2023/02/21 14:10:02;;;;;;;;;;;;;;;13.61;65.29;95737.16;10529374;28;2979;-75
2023/02/21 14:15:05;;;;;;;;;;;;;;;13.58;65.30;95727.78;10523977;28;3030;-74
2023/02/21 14:20:08;;;;;;;;;;;;;;;13.50;66.58;95720.34;10525268;28;3015;-75
2023/02/21 14:25:10;;;;;;;;;;;;;;;13.31;67.44;95723.03;10517382;28;3034;-73
2023/02/21 14:30:13;;;;;;;;;;;;;;;13.35;66.88;95712.44;10529867;28;2399;-73
2023/02/21 14:35:17;;;;;;;;;;;;;;;13.45;66.88;95707.72;10520858;28;2347;-72
2023/02/21 14:40:20;;;;;;;;;;;;;;;13.47;66.69;95710.91;10532569;28;3098;-72
2023/02/21 14:45:23;;;;;;;;;;;;;;;13.43;67.93;95704.50;10524044;28;3015;-74
2023/02/21 14:50:25;;;;;;;;;;;;;;;13.41;67.81;95701.28;10528799;28;3148;-74
2023/02/21 14:55:28;;;;;;;;;;;;;;;13.14;68.52;95693.81;10522325;28;2974;-73
2023/02/21 15:00:30;;;;;;;;;;;;;;;13.03;70.00;95686.94;10520632;28;2281;-77
2023/02/21 15:05:34;;;;;;;;;;;;;;;13.14;69.24;95682.22;10530245;28;2974;-74
2023/02/21 15:10:37;;;;;;;;;;;;;;;13.32;68.67;95678.75;10531723;28;3123;-75
2023/02/21 15:15:39;;;;;;;;;;;;;;;13.38;69.36;95666.78;10520403;28;2444;-73
2023/02/21 15:20:43;;;;;;;;;;;;;;;13.29;69.63;95660.44;10530902;28;2356;-74
2023/02/21 15:25:46;;;;;;;;;;;;;;;13.07;70.86;95660.19;10531021;28;2908;-75
2023/02/21 15:30:48;;;;;;;;;;;;;;;13.18;70.42;95656.25;10532909;28;2456;-74
2023/02/21 15:35:51;;;;;;;;;;;;;;;12.94;72.01;95648.25;10537070;28;3142;-72
2023/02/21 15:40:54;;;;;;;;;;;;;;;13.00;71.46;95652.47;10529495;28;3038;-72
2023/02/21 15:45:59;;;;;;;;;;;;;;;13.11;71.72;95647.75;10530158;28;2986;-71
2023/02/21 15:51:02;;;;;;;;;;;;;;;12.81;71.91;95644.38;10528883;28;2963;-73
2023/02/21 15:56:05;;;;;;;;;;;;;;;12.65;73.54;95637.56;10539065;28;3046;-72
2023/02/21 16:01:07;;;;;;;;;;;;;;;12.57;74.96;95632.81;10529213;28;2297;-72
2023/02/21 16:06:10;;;;;;;;;;;;;;;12.44;76.87;95635.13;10527710;28;3019;-74
2023/02/21 16:11:12;;;;;;;;;;;;;;;12.52;76.95;95630.97;10532694;28;2320;-76
2023/02/21 16:16:15;;;;;;;;;;;;;;;12.43;76.75;95628.13;10527919;28;2403;-75
2023/02/21 16:21:18;;;;;;;;;;;;;;;12.33;77.42;95625.53;10531869;28;2348;-72
2023/02/21 16:26:23;;;;;;;;;;;;;;;12.10;79.08;95629.06;10533674;28;3177;-74
2023/02/21 16:36:57;;;;;;;;;;;;;;;12.05;83.94;95637.19;10521853;28;2423;-73
2023/02/21 16:42:00;;;;;;;;;;;;;;;11.89;85.01;95631.94;10527407;28;2323;-73
2023/02/21 16:47:03;;;;;;;;;;;;;;;11.69;88.38;95628.63;10522991;28;2298;-74
2023/02/21 16:52:15;;;;;;;;;;;;;;;11.29;92.63;95626.03;10523228;28;2273;-70
2023/02/21 16:57:18;;;;;;;;;;;;;;;11.35;93.83;95627.59;10519293;28;3161;-71
2023/02/21 17:02:23;;;;;;;;;;;;;;;11.10;95.75;95633.97;10524037;28;3061;-69
2023/02/21 17:07:30;;;;;;;;;;;;;;;11.13;97.31;95632.59;10502212;28;3046;-69
2023/02/21 17:12:42;;;;;;;;;;;;;;;10.89;100.00;95634.38;10521110;28;2991;-67
2023/02/21 17:17:52;;;;;;;;;;;;;;;10.78;100.00;95642.50;10521870;28;2956;-71
2023/02/21 17:23:05;;;;;;;;;;;;;;;10.70;100.00;95639.59;10524042;28;2974;-70
2023/02/21 17:28:09;;;;;;;;;;;;;;;10.90;100.00;95644.84;10519169;28;2373;-68
2023/02/21 17:33:17;;;;;;;;;;;;;;;10.90;100.00;95641.38;10519546;28;3015;-69
2023/02/21 17:38:20;;;;;;;;;;;;;;;10.87;100.00;95641.91;10521501;28;3029;-71
2023/02/21 17:43:23;;;;;;;;;;;;;;;10.40;100.00;95649.41;10519334;28;3050;-71
2023/02/21 17:48:35;;;;;;;;;;;;;;;10.19;100.00;95637.91;10521759;28;2301;-70
2023/02/21 17:53:38;;;;;;;;;;;;;;;10.00;100.00;95636.91;10521798;28;2311;-73
2023/02/21 17:58:41;;;;;;;;;;;;;;;9.94;100.00;95638.00;10516376;28;3009;-75
2023/02/21 18:03:43;;;;;;;;;;;;;;;9.95;100.00;95631.53;10524770;28;3026;-77
2023/02/21 18:08:46;;;;;;;;;;;;;;;9.92;100.00;95629.38;10525375;28;3106;-73
2023/02/21 18:13:50;;;;;;;;;;;;;;;9.74;100.00;95633.47;10502285;28;3081;-73
2023/02/21 18:18:53;;;;;;;;;;;;;;;9.47;100.00;95634.56;10521968;28;2936;-70
2023/02/21 18:23:56;;;;;;;;;;;;;;;9.44;100.00;95643.16;10524758;28;2982;-72
2023/02/21 18:28:59;;;;;;;;;;;;;;;9.36;100.00;95635.66;10517603;28;2281;-71
2023/02/21 18:34:06;;;;;;;;;;;;;;;9.31;100.00;95634.84;10521978;28;3034;-73
2023/02/21 18:39:08;;;;;;;;;;;;;;;9.12;100.00;95632.69;10529166;28;3051;-71
2023/02/21 18:44:11;;;;;;;;;;;;;;;8.97;100.00;95639.91;10530403;28;3111;-72
2023/02/21 18:49:14;;;;;;;;;;;;;;;8.92;100.00;95640.72;10530155;28;2293;-70
2023/02/21 18:54:16;;;;;;;;;;;;;;;8.76;100.00;95633.72;10529216;28;3089;-70
2023/02/21 18:59:19;;;;;;;;;;;;;;;8.64;100.00;95624.03;10528577;28;3054;-70
2023/02/21 19:04:22;;;;;;;;;;;;;;;8.52;100.00;95628.81;10530220;28;3058;-69
2023/02/21 19:09:24;;;;;;;;;;;;;;;8.48;100.00;95638.47;10534625;28;3085;-69
2023/02/21 19:14:27;;;;;;;;;;;;;;;8.36;100.00;95637.91;10531053;28;2983;-67
2023/02/21 19:19:30;;;;;;;;;;;;;;;8.38;100.00;95649.16;10527521;28;3157;-68
2023/02/21 19:24:33;;;;;;;;;;;;;;;8.27;100.00;95642.09;10509641;28;2991;-68
2023/02/21 19:29:36;;;;;;;;;;;;;;;8.11;100.00;95639.38;10509443;28;3154;-69
2023/02/21 19:34:39;;;;;;;;;;;;;;;8.05;100.00;95639.63;10526138;28;3045;-69
2023/02/21 19:39:42;;;;;;;;;;;;;;;8.05;100.00;95643.09;10525593;28;3150;-72
2023/02/21 19:44:45;;;;;;;;;;;;;;;7.96;100.00;95636.63;10519286;28;3022;-68
2023/02/21 19:49:48;;;;;;;;;;;;;;;7.96;100.00;95642.00;10529478;28;3103;-69
2023/02/21 19:54:52;;;;;;;;;;;;;;;7.89;100.00;95638.75;10529063;28;3027;-70
2023/02/21 19:59:55;;;;;;;;;;;;;;;7.84;100.00;95647.53;10525642;28;2296;-69
2023/02/21 20:05:06;;;;;;;;;;;;;;;7.79;100.00;95636.00;10522716;28;3049;-70
2023/02/21 20:10:10;;;;;;;;;;;;;;;7.72;100.00;95641.59;10522172;28;2944;-70
2023/02/21 20:15:13;;;;;;;;;;;;;;;7.70;100.00;95634.84;10521474;28;3026;-69
2023/02/21 20:20:16;;;;;;;;;;;;;;;7.57;100.00;95630.75;10500954;28;2320;-70
2023/02/21 20:25:22;;;;;;;;;;;;;;;7.58;100.00;95633.22;10520658;28;2982;-69
2023/02/21 20:30:24;;;;;;;;;;;;;;;7.52;100.00;95631.56;10520215;28;2308;-70
2023/02/21 20:35:29;;;;;;;;;;;;;;;7.40;100.00;95633.63;10519212;28;3002;-69
2023/02/21 20:40:32;;;;;;;;;;;;;;;7.36;100.00;95632.50;10521247;28;2407;-69
2023/02/21 20:45:37;;;;;;;;;;;;;;;7.31;100.00;95632.47;10525995;28;3094;-70
2023/02/21 20:50:40;;;;;;;;;;;;;;;7.13;100.00;95633.69;10520680;28;2325;-70
2023/02/21 20:55:43;;;;;;;;;;;;;;;7.15;100.00;95630.75;10522802;28;2262;-70
2023/02/21 21:00:46;;;;;;;;;;;;;;;7.10;100.00;95628.03;10526584;28;3011;-70
2023/02/21 21:05:49;;;;;;;;;;;;;;;7.00;100.00;95626.09;10525763;28;3019;-69
2023/02/21 21:10:52;;;;;;;;;;;;;;;6.94;100.00;95621.75;10525212;28;2305;-70
2023/02/21 21:15:54;;;;;;;;;;;;;;;6.88;100.00;95630.78;10525372;28;3018;-70
2023/02/21 21:20:58;;;;;;;;;;;;;;;6.76;100.00;95628.28;10522562;28;2336;-69
2023/02/21 21:26:01;;;;;;;;;;;;;;;6.63;100.00;95623.34;10527003;28;2327;-69
2023/02/21 21:31:07;;;;;;;;;;;;;;;6.55;100.00;95626.44;10522863;28;3127;-70
2023/02/21 21:36:11;;;;;;;;;;;;;;;6.53;100.00;95620.53;10524997;28;2289;-71
2023/02/21 21:41:14;;;;;;;;;;;;;;;6.45;100.00;95617.28;10520905;28;3031;-76
2023/02/21 21:46:18;;;;;;;;;;;;;;;6.43;100.00;95623.94;10520763;28;3124;-75
2023/02/21 21:51:22;;;;;;;;;;;;;;;6.36;100.00;95618.78;10520756;28;3045;-72
2023/02/21 21:56:27;;;;;;;;;;;;;;;6.29;100.00;95617.34;10526433;28;2354;-71
2023/02/21 22:01:29;;;;;;;;;;;;;;;6.19;100.00;95618.06;10525229;28;2365;-70
2023/02/21 22:06:33;;;;;;;;;;;;;;;6.13;100.00;95621.72;10521691;28;3002;-72
2023/02/21 22:11:36;;;;;;;;;;;;;;;6.06;100.00;95624.56;10519941;28;3014;-71
2023/02/21 22:16:41;;;;;;;;;;;;;;;5.93;100.00;95620.41;10522046;28;2305;-69
2023/02/21 22:21:44;;;;;;;;;;;;;;;5.86;100.00;95618.97;10524504;28;2273;-70
2023/02/21 22:26:48;;;;;;;;;;;;;;;5.88;100.00;95619.50;10522240;28;3202;-69
2023/02/21 22:31:50;;;;;;;;;;;;;;;5.96;100.00;95611.09;10520246;28;3081;-69
2023/02/21 22:36:55;;;;;;;;;;;;;;;5.93;100.00;95609.75;10516792;28;2257;-70
2023/02/21 22:42:08;;;;;;;;;;;;;;;5.97;100.00;95610.84;10478608;28;2349;-72
2023/02/21 22:47:10;;;;;;;;;;;;;;;5.84;100.00;95611.19;10478999;28;3010;-70
2023/02/21 22:52:14;;;;;;;;;;;;;;;5.72;100.00;95602.50;10479860;28;3072;-69
2023/02/21 22:57:17;;;;;;;;;;;;;;;5.59;100.00;95600.19;10481103;28;2320;-70
2023/02/21 23:02:22;;;;;;;;;;;;;;;5.53;100.00;95595.81;10478298;28;2982;-69
2023/02/21 23:07:25;;;;;;;;;;;;;;;5.50;100.00;95599.00;10477923;28;2297;-70
2023/02/21 23:12:30;;;;;;;;;;;;;;;5.45;100.00;95604.25;10485002;28;3009;-68
2023/02/21 23:17:32;;;;;;;;;;;;;;;5.40;100.00;95605.78;10481235;28;2380;-69
2023/02/21 23:22:35;;;;;;;;;;;;;;;5.39;100.00;95596.19;10481550;28;2269;-68
2023/02/21 23:27:37;;;;;;;;;;;;;;;5.37;100.00;95592.16;10506849;28;2299;-68
2023/02/21 23:32:40;;;;;;;;;;;;;;;5.39;100.00;95587.38;10494456;28;2998;-68
2023/02/21 23:37:43;;;;;;;;;;;;;;;5.33;100.00;95591.81;10499071;28;3085;-68
2023/02/21 23:42:45;;;;;;;;;;;;;;;5.24;100.00;95590.66;10525137;28;3198;-70
2023/02/21 23:47:48;;;;;;;;;;;;;;;5.20;100.00;95589.50;10528241;28;3089;-68
2023/02/21 23:52:50;;;;;;;;;;;;;;;5.17;100.00;95595.34;10522089;28;2963;-68
2023/02/21 23:57:53;;;;;;;;;;;;;;;5.19;100.00;95595.09;10525874;28;2277;-69
